Chubbuck, ID (83202)

4:33 AM MDT on September 17, 2014 (GMT -0600)
ITD Arbon Valley ID US | Change Station
CLOSE
Current Station
Personal Weather Station
Location: Chubbuck, ID
Elevation: 4396 ft
Nearby Weather Stations

Elev 4396 ft 42.88 °N, 112.66 °W | Updated 48 minutes ago

Partly Cloudy
Partly Cloudy
63 °F
Feels Like 63 °F
N
5
Wind Variable Wind from NE
Gusts 6.0 mph

Today
High -- | Low -- °F
--% Chance of Precip.
Yesterday
High -- | Low -- °F
Precip. -- in
7:11 AM 7:36 PM
Last Quarter, 37% visible
Pressure 29.82 in
Visibility 10.0 miles
Clouds Clear
Dew Point 48 °F
Humidity 58%
Rainfall 0.00 in
Snow Depth 0 in , 0 in , 1 in
UV 0 out of 12
Pollen 6.60 out of 12
PM2.5 Good
Flu Activity Not available.
METAR KPIH 170953Z AUTO 00000KT 10SM CLR 14/07 A2997 RMK AO2 SLP097 T01390072

More Conditions Fewer Conditions

Pressure 29.82 in
Visibility 10.0 miles
Clouds Clear
Dew Point 48 °F
Humidity 58%
Rainfall 0.00 in
Snow Depth 0 in , 0 in , 1 in
UV 0 out of 12
Pollen 6.60 out of 12
PM2.5 Good
Flu Activity Not available.
METAR KPIH 170953Z AUTO 00000KT 10SM CLR 14/07 A2997 RMK AO2 SLP097 T01390072

More Conditions Fewer Conditions

10-Day Weather Forecast

Almanac

Astronomy

Sep. 17, 2014 Rise Set
Actual Time 7:11 AM MDT 7:36 PM MDT
Civil Twilight 6:43 AM MDT 8:04 PM MDT
Nautical Twilight 6:09 AM MDT 8:37 PM MDT
Astronomical Twilight 5:35 AM MDT 9:12 PM MDT
Moon 1:08 AM MDT 3:54 PM MDT
Length of Visible Light 13h 21m
Length of Day
12h 24m
Tomorrow will be 2m 53s shorter.
Last Quarter, 37% of the Moon is Illuminated
Today
Last Quarter
Sep 24
New
Oct 1
First Quarter
Oct 8
Full
Oct 15
Last Quarter

Today's Extremes

State Highs State Lows

Community

WunderPhotos

Upload Photos

1,753,993 photos uploaded!

Nearby

Air Quality

  Air Quality AQ Index Pollutant
Yesterday Good
PM10
Current Good
PM2.5
Tuesday Good
PM2.5
Wednesday Good
PM2.5
Thursday Good
PM2.5

Snow Depth

Station Depth Elevation
Sheep Mountain 0 in 6570 ft
Deadwood Summit 0 in 6860 ft
Bogus Basin 0 in 6340 ft
Mica Creek 1 in 4750 ft
Mud Flat 1 in 5730 ft

Earthquake Activity

City Distance Mag. Time & Date
Challis, Idaho 146 miles 3.0 12:58 PM MDT
2014-09-14
Minimum magnitude displayed is 2.5.

Coastal Water Temperatures

Place Temperature
No Stations Reporting

Nearby Weather Stations